This is the latest recevied weather packets stored in our database for station/object BMCB-11. If no packets are shown the sender has not sent any weather packets the latest 10 day(s).
| Time | Temp. | Humidity | Pressure | Rain* | Wind** | Luminosity | Snow |
|---|---|---|---|---|---|---|---|
| 1777622446 | 16.11° C | 35% | 1023.9 hPa | 0 mm | - | 384 W/m² | - |
| 1777621246 | 15° C | 36% | 1023.9 hPa | 0 mm | - | 336 W/m² | - |
| 1777619444 | 13.89° C | 38% | 1023.8 hPa | 0 mm | - | 264 W/m² | - |
| 1777618246 | 12.78° C | 39% | 1023.8 hPa | 0 mm | - | 216 W/m² | - |
| 1777615246 | 10.56° C | 45% | 1024 hPa | 0 mm | - | 20 W/m² | - |
| 1777614643 | 10° C | 46% | 1024 hPa | 0 mm | - | 22 W/m² | - |
| 1777614014 | 9.44° C | 47% | 1023.9 hPa | 0 mm | - | 18 W/m² | - |
| 1777608015 | 8.33° C | 48% | 1023.8 hPa | 0 mm | - | 0 W/m² | - |
| 1777603216 | 8.89° C | 46% | 1023.9 hPa | 0 mm | - | 0 W/m² | - |
| 1777599615 | 8.89° C | 44% | 1024.1 hPa | 0 mm | - | 0 W/m² | - |
| 1777598416 | 9.44° C | 43% | 1024 hPa | 0 mm | - | 0 W/m² | - |
| 1777594216 | 10.56° C | 40% | 1024.2 hPa | 0 mm | - | 0 W/m² | - |
| 1777591220 | 10.56° C | 40% | 1024.4 hPa | 0 mm | - | 0 W/m² | - |
| 1777590618 | 10.56° C | 39% | 1024.4 hPa | 0 mm | - | 0 W/m² | - |
| 1777588821 | 11.11° C | 39% | 1024.4 hPa | 0 mm | - | 0 W/m² | - |
| 1777586421 | 11.67° C | 39% | 1024.6 hPa | 0 mm | - | 0 W/m² | - |
| 1777584020 | 12.78° C | 37% | 1024.5 hPa | 0 mm | - | 0 W/m² | - |
| 1777582222 | 13.89° C | 34% | 1024.2 hPa | 0 mm | - | 0 W/m² | - |
| 1777581623 | 13.89° C | 34% | 1024.2 hPa | 0 mm | - | 0 W/m² | - |
| 1777580421 | 13.89° C | 34% | 1024 hPa | 0 mm | - | 0 W/m² | - |
| 1777575622 | 16.11° C | 29% | 1022.9 hPa | 0 mm | - | 2 W/m² | - |
| 1777572020 | 18.33° C | 25% | 1022.2 hPa | 0 mm | - | 18 W/m² | - |
| 1777568422 | 20.56° C | 24% | 1022 hPa | 0 mm | - | 164 W/m² | - |
| 1777558821 | 21.67° C | 24% | 1022.3 hPa | 0 mm | - | 506 W/m² | - |
| 1777555246 | 20.56° C | 25% | 1022.9 hPa | 0 mm | - | 590 W/m² | - |
* Rain latest hour (hover to see other rain measurements)
** Current wind speed in m/s (hover to see current wind gust speed)